createdAt,value
2018-06-19T00:01:33.748Z,59.68
2018-06-19T00:04:02.702Z,59.95
2018-06-19T00:06:31.702Z,59.84
2018-06-19T00:09:00.634Z,59.88
2018-06-19T00:11:29.640Z,59.69
2018-06-19T00:13:58.583Z,59.85
2018-06-19T00:16:27.612Z,59.66
2018-06-19T00:18:59.113Z,59.96
2018-06-19T00:21:34.919Z,59.78
2018-06-19T00:24:03.925Z,59.69
2018-06-19T00:26:32.945Z,59.94
2018-06-19T00:29:02.202Z,59.78
2018-06-19T00:31:31.264Z,59.99
2018-06-19T00:34:00.194Z,59.71
2018-06-19T00:36:29.249Z,60.28
2018-06-19T00:38:58.223Z,60.61
2018-06-19T00:41:27.182Z,60.42
2018-06-19T00:43:56.213Z,60.13
2018-06-19T00:46:27.331Z,60.12
2018-06-19T00:48:56.352Z,60.42
2018-06-19T00:51:25.310Z,61.35
2018-06-19T00:53:54.477Z,60.36
2018-06-19T00:56:34.528Z,60.12
2018-06-19T00:59:03.734Z,60.45
2018-06-19T01:01:32.817Z,60.12
2018-06-19T01:04:01.811Z,60.26
2018-06-19T01:06:30.771Z,60.33
2018-06-19T01:08:59.774Z,60.53
2018-06-19T01:11:28.770Z,60.77
2018-06-19T01:13:57.770Z,60.20
2018-06-19T01:16:27.621Z,60.72
2018-06-19T01:18:56.686Z,60.17
2018-06-19T01:21:25.631Z,60.40
2018-06-19T01:23:54.637Z,60.81
2018-06-19T01:26:23.614Z,61.03
2018-06-19T01:28:52.769Z,60.75
2018-06-19T01:31:21.842Z,60.96
2018-06-19T01:33:51.142Z,61.13
2018-06-19T01:36:20.404Z,61.53
2018-06-19T01:38:49.542Z,61.41
2018-06-19T01:41:18.795Z,61.47
2018-06-19T01:43:47.831Z,62.32
2018-06-19T01:46:16.768Z,61.84
2018-06-19T01:48:45.902Z,61.56
2018-06-19T01:51:14.862Z,62.18
2018-06-19T01:53:43.903Z,62.15
2018-06-19T01:56:12.891Z,62.19
2018-06-19T01:58:41.916Z,62.67
2018-06-19T02:01:10.990Z,62.08
2018-06-19T02:03:40.022Z,62.52
2018-06-19T02:06:08.974Z,63.38
2018-06-19T02:08:37.983Z,63.18
2018-06-19T02:11:06.964Z,64.02
2018-06-19T02:13:36.003Z,63.64
2018-06-19T02:16:04.972Z,63.80
2018-06-19T02:18:34.014Z,63.35
2018-06-19T02:21:03.013Z,64.41
2018-06-19T02:23:32.016Z,64.40
2018-06-19T02:26:00.922Z,65.12
2018-06-19T02:28:29.910Z,66.76
2018-06-19T02:30:58.837Z,67.77
2018-06-19T02:33:27.824Z,68.39
2018-06-19T02:35:56.754Z,65.85
2018-06-19T02:38:25.782Z,65.11
2018-06-19T02:40:54.731Z,64.02
2018-06-19T02:43:23.775Z,63.96
2018-06-19T02:45:52.756Z,64.23
2018-06-19T02:48:21.722Z,64.28
2018-06-19T02:50:50.742Z,63.59
2018-06-19T02:53:19.683Z,64.46
2018-06-19T02:55:48.680Z,63.82
2018-06-19T02:58:17.622Z,64.25
2018-06-19T03:00:46.729Z,64.11
2018-06-19T03:03:15.662Z,68.15
2018-06-19T03:05:44.629Z,66.80
2018-06-19T03:08:13.570Z,65.58
2018-06-19T03:10:42.555Z,65.14
2018-06-19T03:13:11.490Z,67.46
2018-06-19T03:15:40.493Z,66.11
2018-06-19T03:18:09.480Z,65.51
2018-06-19T03:20:38.493Z,64.44
2018-06-19T03:23:07.539Z,64.99
2018-06-19T03:25:36.508Z,68.51
2018-06-19T03:28:05.452Z,67.68
2018-06-19T03:30:34.449Z,67.12
2018-06-19T03:33:03.403Z,66.63
2018-06-19T03:35:32.382Z,65.86
2018-06-19T03:38:01.335Z,65.52
2018-06-19T03:40:30.352Z,65.00
2018-06-19T03:42:59.281Z,65.48
2018-06-19T03:45:28.262Z,65.16
2018-06-19T03:47:57.222Z,64.32
2018-06-19T03:50:26.230Z,64.86
2018-06-19T03:52:55.193Z,64.10
2018-06-19T03:55:24.212Z,63.96
2018-06-19T03:57:53.187Z,64.14
2018-06-19T04:00:22.203Z,64.75
2018-06-19T04:02:51.173Z,64.50
2018-06-19T04:05:20.143Z,64.18
2018-06-19T04:07:49.095Z,63.45
2018-06-19T04:10:18.095Z,63.80
2018-06-19T04:12:47.072Z,63.80
2018-06-19T04:15:16.106Z,63.40
2018-06-19T04:17:45.085Z,63.03
2018-06-19T04:20:14.222Z,64.08
2018-06-19T04:22:43.207Z,63.26
2018-06-19T04:25:12.214Z,61.89
2018-06-19T04:27:41.178Z,61.14
2018-06-19T04:30:10.184Z,59.51
2018-06-19T04:32:39.184Z,57.28
2018-06-19T04:35:08.174Z,57.17
2018-06-19T04:37:37.178Z,59.01
2018-06-19T04:40:06.192Z,61.05
2018-06-19T04:42:35.185Z,64.89
2018-06-19T04:45:04.188Z,67.49
2018-06-19T04:47:33.189Z,69.32
2018-06-19T04:50:02.138Z,65.76
2018-06-19T04:52:31.131Z,63.73
2018-06-19T04:55:00.070Z,62.05
2018-06-19T04:57:29.116Z,60.41
2018-06-19T04:59:58.154Z,60.19
2018-06-19T05:02:27.157Z,59.37
2018-06-19T05:04:56.153Z,58.91
2018-06-19T05:07:25.166Z,57.71
2018-06-19T05:09:54.152Z,58.65
2018-06-19T05:12:23.193Z,57.59
2018-06-19T05:14:52.265Z,57.05
2018-06-19T05:17:21.273Z,55.37
2018-06-19T05:19:50.377Z,49.16
2018-06-19T05:22:19.435Z,44.36
2018-06-19T05:24:48.423Z,40.38
2018-06-19T05:27:17.483Z,39.57
2018-06-19T05:29:46.502Z,40.25
2018-06-19T05:32:15.501Z,36.93
2018-06-19T05:34:44.463Z,39.56
2018-06-19T05:37:13.601Z,37.49
2018-06-19T05:39:43.362Z,39.81
2018-06-19T05:42:13.109Z,40.21
2018-06-19T05:44:42.886Z,39.35
2018-06-19T05:47:12.694Z,40.86
2018-06-19T05:49:42.400Z,40.24
2018-06-19T05:52:12.216Z,40.16
2018-06-19T05:54:42.061Z,41.31
2018-06-19T05:57:11.808Z,40.48
2018-06-19T05:59:41.683Z,37.97
2018-06-19T06:02:11.412Z,36.17
2018-06-19T06:04:41.257Z,35.50
2018-06-19T06:07:11.004Z,33.39
2018-06-19T06:09:40.810Z,34.17
2018-06-19T06:12:10.598Z,34.16
2018-06-19T06:14:40.368Z,32.11
2018-06-19T06:17:09.947Z,36.97
2018-06-19T06:19:39.786Z,35.71
2018-06-19T06:22:09.567Z,43.71
2018-06-19T06:24:39.368Z,36.99
2018-06-19T06:27:09.534Z,30.27
2018-06-19T06:29:39.360Z,31.02
2018-06-19T06:32:09.236Z,32.33
2018-06-19T06:34:39.033Z,28.36
2018-06-19T06:37:08.811Z,28.57
2018-06-19T06:39:38.686Z,27.22
2018-06-19T06:42:08.430Z,30.33
2018-06-19T06:44:38.243Z,28.58
2018-06-19T06:47:08.481Z,35.22
2018-06-19T06:49:38.377Z,33.68
2018-06-19T06:52:08.078Z,36.35
2018-06-19T06:54:38.150Z,48.99
2018-06-19T06:57:08.184Z,49.17
2018-06-19T06:59:38.209Z,48.99
2018-06-19T07:02:08.252Z,44.90
2018-06-19T07:04:38.101Z,46.89
2018-06-19T07:07:07.842Z,46.74
2018-06-19T07:09:37.629Z,48.30
2018-06-19T07:12:07.468Z,47.16
2018-06-19T07:14:37.282Z,46.33
2018-06-19T07:17:07.276Z,44.96
2018-06-19T07:19:37.104Z,44.21
2018-06-19T07:22:06.862Z,45.45
2018-06-19T07:24:36.771Z,44.73
2018-06-19T07:27:06.549Z,44.99
2018-06-19T07:29:36.315Z,44.10
2018-06-19T07:32:06.123Z,46.16
2018-06-19T07:34:35.868Z,45.75
2018-06-19T07:37:05.670Z,46.66
2018-06-19T07:39:35.553Z,47.08
2018-06-19T07:42:04.601Z,47.70
2018-06-19T07:44:33.680Z,46.87
2018-06-19T07:47:02.667Z,47.48
2018-06-19T07:49:32.451Z,47.43
2018-06-19T07:52:02.336Z,47.35
2018-06-19T07:54:32.051Z,46.98
2018-06-19T07:57:01.834Z,47.43
2018-06-19T07:59:31.664Z,48.10
2018-06-19T08:02:01.507Z,47.43
2018-06-19T08:04:31.219Z,47.57
2018-06-19T08:07:01.149Z,47.77
2018-06-19T08:09:30.084Z,47.83
2018-06-19T08:11:59.047Z,48.20
2018-06-19T08:14:28.006Z,47.88
2018-06-19T08:16:56.988Z,47.09
2018-06-19T08:19:25.939Z,47.24
2018-06-19T08:21:55.855Z,47.52
2018-06-19T08:24:25.627Z,46.30
2018-06-19T08:26:55.446Z,45.84
2018-06-19T08:29:25.367Z,44.91
2018-06-19T08:31:55.198Z,45.05
2018-06-19T08:34:24.854Z,44.79
2018-06-19T08:36:54.958Z,43.46
2018-06-19T08:39:24.801Z,43.17
2018-06-19T08:41:54.687Z,43.78
2018-06-19T08:44:24.463Z,43.70
2018-06-19T08:46:54.231Z,42.42
2018-06-19T08:49:23.911Z,43.05
2018-06-19T08:51:53.822Z,43.57
2018-06-19T08:54:23.637Z,45.18
2018-06-19T08:56:53.594Z,43.97
2018-06-19T08:59:23.339Z,45.31
2018-06-19T09:01:53.198Z,44.46
2018-06-19T09:04:23.394Z,44.02
2018-06-19T09:06:53.203Z,44.19
2018-06-19T09:09:23.321Z,43.51
2018-06-19T09:11:53.064Z,46.13
2018-06-19T09:14:22.762Z,42.80
2018-06-19T09:16:52.518Z,41.76
2018-06-19T09:19:22.339Z,41.98
2018-06-19T09:21:52.191Z,42.51
2018-06-19T09:24:22.061Z,46.07
2018-06-19T09:26:51.858Z,41.50
2018-06-19T09:29:21.888Z,42.82
2018-06-19T09:31:50.899Z,40.59
2018-06-19T09:34:19.916Z,39.47
2018-06-19T09:36:48.864Z,35.21
2018-06-19T09:39:18.563Z,42.33
2018-06-19T09:41:47.536Z,43.47
2018-06-19T09:44:16.538Z,42.38
2018-06-19T09:46:45.491Z,42.67
2018-06-19T09:49:14.497Z,41.43
2018-06-19T09:51:43.607Z,40.21
2018-06-19T09:54:12.622Z,41.40
2018-06-19T09:56:41.596Z,44.39
2018-06-19T09:59:10.697Z,45.71
2018-06-19T10:01:39.646Z,46.93
2018-06-19T10:04:08.648Z,45.59
2018-06-19T10:06:38.526Z,45.25
2018-06-19T10:09:10.231Z,44.99
2018-06-19T10:11:40.106Z,45.31
2018-06-19T10:14:09.972Z,42.65
2018-06-19T10:16:39.798Z,42.73
2018-06-19T10:19:09.571Z,45.21
2018-06-19T10:21:39.364Z,45.03
2018-06-19T10:24:09.009Z,44.32
2018-06-19T10:26:38.809Z,46.90
2018-06-19T10:29:08.900Z,45.04
2018-06-19T10:31:38.743Z,44.67
2018-06-19T10:34:08.501Z,44.32
2018-06-19T10:36:38.223Z,43.77
2018-06-19T10:39:10.837Z,42.45
2018-06-19T10:41:40.670Z,39.75
2018-06-19T10:44:10.547Z,42.19
2018-06-19T10:46:40.303Z,39.42
2018-06-19T10:49:10.017Z,37.96
2018-06-19T10:51:39.814Z,37.31
2018-06-19T10:54:09.477Z,38.41
2018-06-19T10:56:39.541Z,38.39
2018-06-19T10:59:09.418Z,37.14
2018-06-19T11:01:39.160Z,36.45
2018-06-19T11:04:08.891Z,37.38
2018-06-19T11:06:38.686Z,38.08
2018-06-19T11:09:10.695Z,39.21
2018-06-19T11:11:39.906Z,39.87
2018-06-19T11:14:08.984Z,39.13
2018-06-19T11:16:37.934Z,39.33
2018-06-19T11:19:06.902Z,37.68
2018-06-19T11:21:35.873Z,39.81
2018-06-19T11:24:05.006Z,41.04
2018-06-19T11:26:33.808Z,41.42
2018-06-19T11:29:02.814Z,40.98
2018-06-19T11:31:31.758Z,40.34
2018-06-19T11:34:00.722Z,40.64
2018-06-19T11:36:29.714Z,38.93
2018-06-19T11:38:58.688Z,42.24
2018-06-19T11:41:27.766Z,40.70
2018-06-19T11:43:57.015Z,40.76
2018-06-19T11:46:26.178Z,39.76
2018-06-19T11:48:55.134Z,39.90
2018-06-19T11:51:25.020Z,40.70
2018-06-19T11:53:54.130Z,39.90
2018-06-19T11:56:23.901Z,39.79
2018-06-19T11:58:53.916Z,40.72
2018-06-19T12:01:23.690Z,41.39
2018-06-19T12:03:53.480Z,41.34
2018-06-19T12:06:23.302Z,41.17
2018-06-19T12:08:53.091Z,42.44
2018-06-19T12:11:22.806Z,41.01
2018-06-19T12:13:52.639Z,41.77
2018-06-19T12:16:22.383Z,45.60
2018-06-19T12:18:52.230Z,46.38
2018-06-19T12:21:21.962Z,45.48
2018-06-19T12:23:51.983Z,45.24
2018-06-19T12:26:21.786Z,42.85
2018-06-19T12:28:51.685Z,41.50
2018-06-19T12:31:20.624Z,42.48
2018-06-19T12:33:55.893Z,42.61
2018-06-19T12:36:24.979Z,43.17
2018-06-19T12:38:54.006Z,42.76
2018-06-19T12:41:23.299Z,41.27
2018-06-19T12:43:52.290Z,41.35
2018-06-19T12:46:21.251Z,40.72
2018-06-19T12:48:50.253Z,41.18
2018-06-19T12:52:00.752Z,40.74
2018-06-19T12:56:38.008Z,40.70
2018-06-19T12:59:07.018Z,40.40
2018-06-19T13:01:36.357Z,40.49
2018-06-19T13:04:16.258Z,39.64
2018-06-19T13:06:45.376Z,38.41
2018-06-19T13:09:14.482Z,38.10
2018-06-19T13:11:44.134Z,37.65
2018-06-19T13:14:24.100Z,35.12
2018-06-19T13:17:03.901Z,38.90
2018-06-19T13:19:43.766Z,38.86
2018-06-19T13:22:13.194Z,37.54
2018-06-19T13:24:43.019Z,35.65
2018-06-19T13:27:12.026Z,34.58
2018-06-19T13:29:55.150Z,34.30
2018-06-19T13:32:24.680Z,38.39
2018-06-19T13:34:54.172Z,39.29
2018-06-19T13:37:23.130Z,38.11
2018-06-19T13:41:01.418Z,39.19
2018-06-19T13:43:41.791Z,38.91
2018-06-19T13:46:11.407Z,37.88
2018-06-19T13:48:41.150Z,37.57
2018-06-19T13:51:10.596Z,37.73
2018-06-19T13:53:39.681Z,36.85
2018-06-19T13:57:20.937Z,36.08
2018-06-19T13:59:50.766Z,37.21
2018-06-19T14:02:20.109Z,37.16
2018-06-19T14:04:49.254Z,36.09
2018-06-19T14:07:18.366Z,36.11
2018-06-19T14:09:58.322Z,37.28
2018-06-19T14:12:58.582Z,37.29
2018-06-19T14:15:28.663Z,36.37
2018-06-19T14:17:57.981Z,34.99
2018-06-19T14:20:27.047Z,36.13
2018-06-19T14:22:56.038Z,36.01
2018-06-19T14:25:25.242Z,35.67
2018-06-19T14:27:54.254Z,36.19
2018-06-19T14:30:23.193Z,34.13
2018-06-19T14:32:52.174Z,37.42
2018-06-19T14:35:21.168Z,36.64
2018-06-19T14:37:50.164Z,39.82
2018-06-19T14:40:19.144Z,39.48
2018-06-19T14:42:48.105Z,38.77
2018-06-19T14:45:17.058Z,40.84
2018-06-19T14:47:46.075Z,40.36
2018-06-19T14:50:15.374Z,40.59
2018-06-19T14:52:44.343Z,40.19
2018-06-19T14:55:13.282Z,39.27
2018-06-19T14:57:42.254Z,41.36
2018-06-19T15:00:11.914Z,40.56
2018-06-19T15:02:41.190Z,40.66
2018-06-19T15:05:10.134Z,43.12
2018-06-19T15:07:58.381Z,42.78
2018-06-19T15:10:27.527Z,43.22
2018-06-19T15:12:56.508Z,42.46
2018-06-19T15:15:25.439Z,40.16
2018-06-19T15:17:54.412Z,40.58
2018-06-19T15:20:23.331Z,40.19
2018-06-19T15:22:52.316Z,42.71
2018-06-19T15:25:21.344Z,40.63
2018-06-19T15:27:50.253Z,41.61
2018-06-19T15:30:19.220Z,41.63
2018-06-19T15:32:48.166Z,40.93
2018-06-19T15:35:17.161Z,40.18
2018-06-19T15:37:46.236Z,39.90
2018-06-19T15:40:15.205Z,42.40
2018-06-19T15:42:44.171Z,41.86
2018-06-19T15:45:13.165Z,41.51
2018-06-19T15:47:42.107Z,41.47
2018-06-19T15:50:11.271Z,42.50
2018-06-19T15:52:40.202Z,42.32
2018-06-19T15:55:09.314Z,41.48
2018-06-19T15:57:38.307Z,43.82
2018-06-19T16:00:07.313Z,42.85
2018-06-19T16:02:36.237Z,43.07
2018-06-19T16:05:05.246Z,42.56
2018-06-19T16:07:34.315Z,41.33
2018-06-19T16:10:04.122Z,43.49
2018-06-19T16:12:33.338Z,42.37
2018-06-19T16:15:02.344Z,43.14
2018-06-19T16:17:31.306Z,43.28
2018-06-19T16:20:00.374Z,41.00
2018-06-19T16:22:29.326Z,39.66
2018-06-19T16:24:58.421Z,39.09
2018-06-19T16:27:27.801Z,39.10
2018-06-19T16:29:56.905Z,38.62
2018-06-19T16:32:25.839Z,38.67
2018-06-19T16:34:54.845Z,38.34
2018-06-19T16:37:23.790Z,38.81
2018-06-19T16:39:53.510Z,38.41
2018-06-19T16:42:22.774Z,39.40
2018-06-19T16:44:51.785Z,39.79
2018-06-19T16:47:20.734Z,39.79
2018-06-19T16:49:49.695Z,39.50
2018-06-19T16:52:18.901Z,38.57
2018-06-19T16:54:47.891Z,39.01
2018-06-19T16:57:16.898Z,38.96
2018-06-19T16:59:45.881Z,39.56
2018-06-19T17:02:14.864Z,39.15
2018-06-19T17:04:43.842Z,39.26
2018-06-19T17:07:12.865Z,38.04
2018-06-19T17:09:41.803Z,40.20
2018-06-19T17:12:10.788Z,39.28
2018-06-19T17:14:39.885Z,39.87
2018-06-19T17:17:08.978Z,41.14
2018-06-19T17:19:38.084Z,40.32
2018-06-19T17:22:07.071Z,39.80
2018-06-19T17:24:36.016Z,40.23
2018-06-19T17:27:05.005Z,39.77
2018-06-19T17:29:33.939Z,39.32
2018-06-19T17:32:03.015Z,38.98
2018-06-19T17:34:31.985Z,40.47
2018-06-19T17:37:01.096Z,40.56
2018-06-19T17:39:30.191Z,40.45
2018-06-19T17:41:59.255Z,40.72
2018-06-19T17:44:28.182Z,41.07
2018-06-19T17:46:57.276Z,41.08
2018-06-19T17:49:26.199Z,41.54
2018-06-19T17:51:55.187Z,41.46
2018-06-19T17:54:24.129Z,42.23
2018-06-19T17:56:53.129Z,42.15
2018-06-19T17:59:22.182Z,42.54
2018-06-19T18:01:51.114Z,43.13
2018-06-19T18:04:20.384Z,44.40
2018-06-19T18:06:49.317Z,46.62
2018-06-19T18:09:18.424Z,49.16
2018-06-19T18:11:47.358Z,47.91
2018-06-19T18:14:16.319Z,47.44
2018-06-19T18:16:45.267Z,48.57
2018-06-19T18:19:14.275Z,48.74
2018-06-19T18:21:43.221Z,49.90
2018-06-19T18:24:12.204Z,50.21
2018-06-19T18:26:41.178Z,50.80
2018-06-19T18:29:10.364Z,50.83
2018-06-19T18:31:39.282Z,51.33
2018-06-19T18:34:08.265Z,50.40
2018-06-19T18:36:37.247Z,50.54
2018-06-19T18:39:09.013Z,50.61
2018-06-19T18:41:37.989Z,50.46
2018-06-19T18:44:07.015Z,50.76
2018-06-19T18:46:35.993Z,50.90
2018-06-19T18:49:05.187Z,50.79
2018-06-19T18:51:34.151Z,50.02
2018-06-19T18:54:03.154Z,49.93
2018-06-19T18:56:32.107Z,49.42
2018-06-19T18:59:01.083Z,50.20
2018-06-19T19:01:30.016Z,49.70
2018-06-19T19:03:58.984Z,49.76
2018-06-19T19:06:27.956Z,49.80
2018-06-19T19:08:56.924Z,49.63
2018-06-19T19:11:25.863Z,49.21
2018-06-19T19:13:54.858Z,48.79
2018-06-19T19:16:29.006Z,49.36
2018-06-19T19:19:02.004Z,48.97
2018-06-19T19:21:31.009Z,48.88
2018-06-19T19:23:59.945Z,49.24
2018-06-19T19:26:34.114Z,49.73
2018-06-19T19:29:08.304Z,49.64
2018-06-19T19:31:37.321Z,50.34
2018-06-19T19:34:06.615Z,49.94
2018-06-19T19:36:40.615Z,49.95
2018-06-19T19:39:14.949Z,49.87
2018-06-19T19:41:45.281Z,49.86
2018-06-19T19:44:14.358Z,49.98
2018-06-19T19:46:48.394Z,50.53
2018-06-19T19:49:17.363Z,50.15
2018-06-19T19:51:46.357Z,50.82
2018-06-19T19:54:15.324Z,51.20
2018-06-19T19:56:49.570Z,50.90
2018-06-19T19:59:18.591Z,51.43
2018-06-19T20:01:47.786Z,51.09
2018-06-19T20:04:16.738Z,51.45
2018-06-19T20:06:45.745Z,51.65
2018-06-19T20:09:14.687Z,51.40
2018-06-19T20:11:43.707Z,52.17
2018-06-19T20:14:12.687Z,51.64
2018-06-19T20:16:41.698Z,51.83
2018-06-19T20:19:10.654Z,51.69
2018-06-19T20:21:39.673Z,51.43
2018-06-19T20:24:08.607Z,57.91
2018-06-19T20:26:37.589Z,59.44
2018-06-19T20:29:06.609Z,58.83
2018-06-19T20:31:35.743Z,58.91
2018-06-19T20:34:04.883Z,58.90
2018-06-19T20:36:33.879Z,58.52
2018-06-19T20:39:02.920Z,57.21
2018-06-19T20:41:31.939Z,57.38
2018-06-19T20:44:00.902Z,56.38
2018-06-19T20:46:29.900Z,56.07
2018-06-19T20:48:58.860Z,56.50
2018-06-19T20:51:27.834Z,56.10
2018-06-19T20:53:56.838Z,56.34
2018-06-19T20:56:25.837Z,56.51
2018-06-19T20:58:54.830Z,56.46
2018-06-19T21:01:23.791Z,56.95
2018-06-19T21:03:52.776Z,56.75
2018-06-19T21:06:21.724Z,57.08
2018-06-19T21:08:50.731Z,57.51
2018-06-19T21:11:19.691Z,57.28
2018-06-19T21:13:48.652Z,57.31
2018-06-19T21:16:17.607Z,57.23
2018-06-19T21:18:46.627Z,56.68
2018-06-19T21:21:15.578Z,57.28
2018-06-19T21:23:44.572Z,56.67
2018-06-19T21:26:13.522Z,56.86
2018-06-19T21:28:42.515Z,57.33
2018-06-19T21:31:11.487Z,58.31
2018-06-19T21:33:40.502Z,57.67
2018-06-19T21:36:09.495Z,57.09
2018-06-19T21:38:38.489Z,56.83
2018-06-19T21:41:07.446Z,57.30
2018-06-19T21:43:36.427Z,57.21
2018-06-19T21:46:05.743Z,58.43
2018-06-19T21:48:35.306Z,57.27
2018-06-19T21:51:04.278Z,56.90
2018-06-19T21:53:33.262Z,56.31
2018-06-19T21:56:02.225Z,56.25
2018-06-19T21:58:31.269Z,56.58
2018-06-19T22:01:00.215Z,56.66
2018-06-19T22:03:29.211Z,56.32
2018-06-19T22:05:58.193Z,56.35
2018-06-19T22:08:31.258Z,56.09
2018-06-19T22:11:00.241Z,56.36
2018-06-19T22:13:29.356Z,56.42
2018-06-19T22:15:58.303Z,60.33
2018-06-19T22:18:27.310Z,59.40
2018-06-19T22:20:56.258Z,57.76
2018-06-19T22:23:25.287Z,56.97
2018-06-19T22:25:54.240Z,57.41
2018-06-19T22:28:23.282Z,56.65
2018-06-19T22:30:52.214Z,56.03
2018-06-19T22:33:21.263Z,55.69
2018-06-19T22:35:50.312Z,55.77
2018-06-19T22:38:19.222Z,55.66
2018-06-19T22:40:48.537Z,55.54
2018-06-19T22:43:17.467Z,55.75
2018-06-19T22:45:46.474Z,55.47
2018-06-19T22:48:15.412Z,55.27
2018-06-19T22:50:44.402Z,54.68
2018-06-19T22:53:13.434Z,55.12
2018-06-19T22:55:42.409Z,54.76
2018-06-19T22:58:11.350Z,55.35
2018-06-19T23:00:40.351Z,54.76
2018-06-19T23:03:09.270Z,55.02
2018-06-19T23:05:38.269Z,54.60
2018-06-19T23:08:07.309Z,54.97
2018-06-19T23:10:36.300Z,55.37
2018-06-19T23:13:05.215Z,56.86
2018-06-19T23:15:34.192Z,58.13
2018-06-19T23:18:03.146Z,58.57
2018-06-19T23:20:32.120Z,58.61
2018-06-19T23:23:01.306Z,57.50
2018-06-19T23:25:30.243Z,57.00
2018-06-19T23:27:59.188Z,56.93
2018-06-19T23:30:28.141Z,57.52
2018-06-19T23:32:57.078Z,57.47
2018-06-19T23:35:26.054Z,57.35
2018-06-19T23:37:54.985Z,56.45
2018-06-19T23:40:23.965Z,56.68
2018-06-19T23:42:52.902Z,56.63
2018-06-19T23:45:21.882Z,57.66
2018-06-19T23:47:50.795Z,57.49
2018-06-19T23:50:19.758Z,57.73
2018-06-19T23:52:48.676Z,57.27
2018-06-19T23:55:17.639Z,56.77
2018-06-19T23:57:46.682Z,56.73
